createdAt,value
2023-02-16T07:39:21.107Z,0.36
2023-02-16T07:40:20.919Z,0.43
2023-02-16T07:42:25.253Z,0.40
2023-02-16T07:43:25.153Z,0.53
2023-02-16T07:45:29.578Z,0.53
2023-02-16T07:46:31.019Z,0.55
2023-02-16T07:50:06.596Z,0.69
2023-02-16T07:51:06.867Z,0.76
2023-02-16T07:54:43.184Z,0.94
2023-02-16T07:55:43.102Z,1.08
2023-02-16T07:56:43.028Z,1.10
2023-02-16T07:57:42.965Z,1.27
2023-02-16T07:58:42.889Z,1.18
2023-02-16T07:59:42.817Z,1.21
2023-02-16T08:00:42.745Z,1.30
2023-02-16T08:01:42.673Z,1.26
2023-02-16T08:02:42.700Z,1.34
2023-02-16T08:03:42.543Z,1.35
2023-02-16T08:04:42.465Z,1.38
2023-02-16T08:05:42.392Z,1.36
2023-02-16T08:06:42.324Z,1.48
2023-02-16T08:07:42.273Z,1.48
2023-02-16T08:08:42.177Z,1.55
2023-02-16T08:09:42.108Z,1.57
2023-02-16T08:10:42.125Z,1.60
2023-02-16T08:11:41.964Z,1.63
2023-02-16T08:12:41.900Z,1.64
2023-02-16T08:13:41.823Z,1.77
2023-02-16T08:14:41.747Z,1.80
2023-02-16T08:15:41.684Z,1.85
2023-02-16T08:16:41.698Z,1.95
2023-02-16T08:17:41.549Z,2.06
2023-02-16T08:18:41.483Z,2.11
2023-02-16T08:19:41.400Z,2.07
2023-02-16T08:21:02.344Z,2.18
2023-02-16T08:21:41.259Z,2.22
2023-02-16T08:22:41.203Z,2.28
2023-02-16T08:23:41.119Z,2.37
2023-02-16T08:24:41.047Z,2.45
2023-02-16T08:25:40.996Z,2.43
2023-02-16T08:26:41.225Z,2.43
2023-02-16T08:27:40.837Z,2.50
2023-02-16T08:28:40.760Z,2.45
2023-02-16T08:29:40.733Z,2.63
2023-02-16T08:30:40.622Z,2.57
2023-02-16T08:31:40.641Z,2.69
2023-02-16T08:32:40.484Z,2.94
2023-02-16T08:33:40.411Z,3.05
2023-02-16T08:34:43.160Z,3.22
2023-02-16T08:35:40.270Z,3.23
2023-02-16T08:36:40.262Z,3.35
2023-02-16T08:37:40.145Z,3.32
2023-02-16T08:38:40.062Z,3.41
2023-02-16T08:39:39.991Z,3.41
2023-02-16T08:40:39.916Z,3.54
2023-02-16T08:41:39.849Z,3.63
2023-02-16T08:42:39.785Z,3.59
2023-02-16T08:43:39.712Z,3.69
2023-02-16T08:44:39.721Z,3.66
2023-02-16T08:45:39.592Z,3.84
2023-02-16T08:46:39.510Z,3.87
2023-02-16T08:47:39.427Z,4.02
2023-02-16T08:48:39.356Z,4.06
2023-02-16T08:49:39.524Z,4.08
2023-02-16T08:50:39.218Z,4.17
2023-02-16T08:51:39.148Z,4.21
2023-02-16T08:52:39.078Z,4.18
2023-02-16T08:53:39.011Z,4.30
2023-02-16T08:54:38.941Z,4.39
2023-02-16T08:55:38.904Z,4.53
2023-02-16T08:56:38.811Z,4.54
2023-02-16T08:57:38.730Z,4.63
2023-02-16T08:58:38.659Z,4.75
2023-02-16T08:59:38.610Z,4.79
2023-02-16T09:00:38.525Z,4.93
2023-02-16T09:01:38.529Z,5.01
2023-02-16T09:02:38.409Z,5.04
2023-02-16T09:03:38.375Z,5.04
2023-02-16T09:04:38.239Z,5.01
2023-02-16T09:05:38.179Z,5.06
2023-02-16T09:06:38.098Z,5.09
2023-02-16T09:07:38.034Z,5.15
2023-02-16T09:08:37.960Z,5.14
2023-02-16T09:09:37.896Z,5.32
2023-02-16T09:10:37.829Z,5.27
2023-02-16T09:11:37.750Z,5.32
2023-02-16T09:12:37.692Z,5.32
2023-02-16T09:13:37.619Z,5.30
2023-02-16T09:14:37.549Z,5.30
2023-02-16T09:15:38.482Z,5.34
2023-02-16T09:16:37.435Z,5.41
2023-02-16T09:17:37.345Z,5.30
2023-02-16T09:18:37.267Z,5.52
2023-02-16T09:19:37.200Z,5.55
2023-02-16T09:20:37.135Z,5.62
2023-02-16T09:21:37.067Z,5.59
2023-02-16T09:22:37.001Z,5.69
2023-02-16T09:23:36.928Z,5.72
2023-02-16T09:24:36.859Z,5.84
2023-02-16T09:25:36.790Z,5.79
2023-02-16T09:26:36.720Z,5.97
2023-02-16T09:27:36.657Z,5.98
2023-02-16T09:28:36.593Z,6.11
2023-02-16T09:29:36.516Z,6.02
2023-02-16T09:30:36.597Z,6.15
2023-02-16T09:31:36.498Z,6.12
2023-02-16T09:32:36.326Z,6.15
2023-02-16T09:33:36.247Z,6.28
2023-02-16T09:34:36.175Z,6.32
2023-02-16T09:35:36.114Z,6.31
2023-02-16T09:36:36.031Z,6.40
2023-02-16T09:37:35.965Z,6.38
2023-02-16T09:38:35.898Z,6.45
2023-02-16T09:39:35.830Z,6.53
2023-02-16T09:40:35.761Z,6.65
2023-02-16T09:41:35.690Z,6.57
2023-02-16T09:42:35.622Z,6.60
2023-02-16T09:43:35.555Z,6.81
2023-02-16T09:44:35.497Z,6.83
2023-02-16T09:45:35.436Z,6.82
2023-02-16T09:46:35.444Z,6.93
2023-02-16T09:47:35.284Z,7.03
2023-02-16T09:48:35.219Z,7.10
2023-02-16T09:49:35.172Z,7.18
2023-02-16T09:50:53.917Z,7.16
2023-02-16T09:51:35.104Z,7.25
2023-02-16T09:52:34.943Z,7.25
2023-02-16T09:53:34.885Z,7.40
2023-02-16T09:54:34.841Z,7.44
2023-02-16T09:55:34.739Z,7.54
2023-02-16T09:56:34.684Z,7.58
2023-02-16T09:57:34.599Z,7.61
2023-02-16T09:58:34.532Z,7.66
2023-02-16T09:59:34.466Z,7.73
2023-02-16T10:00:34.396Z,7.80
2023-02-16T10:01:34.391Z,7.74
2023-02-16T10:02:34.268Z,7.91
2023-02-16T10:03:34.203Z,7.86
2023-02-16T10:04:34.120Z,7.86
2023-02-16T10:05:34.061Z,8.02
2023-02-16T10:06:33.990Z,8.01
2023-02-16T10:07:33.919Z,8.09
2023-02-16T10:08:33.852Z,8.14
2023-02-16T10:09:33.789Z,8.23
2023-02-16T10:10:33.717Z,8.26
2023-02-16T10:11:33.653Z,8.34
2023-02-16T10:12:33.590Z,8.24
2023-02-16T10:13:33.520Z,8.34
2023-02-16T10:14:33.466Z,8.38
2023-02-16T10:15:33.428Z,8.42
2023-02-16T10:16:33.324Z,8.55
2023-02-16T10:17:33.269Z,8.59
2023-02-16T10:18:33.178Z,8.57
2023-02-16T10:19:33.108Z,8.56
2023-02-16T10:20:33.041Z,8.70
2023-02-16T10:21:32.976Z,8.72
2023-02-16T10:22:32.915Z,8.75
2023-02-16T10:23:32.840Z,8.86
2023-02-16T10:24:32.769Z,8.89
2023-02-16T10:25:32.707Z,8.88
2023-02-16T10:26:32.642Z,8.90
2023-02-16T10:27:32.596Z,8.99
2023-02-16T10:28:32.498Z,9.08
2023-02-16T10:29:32.433Z,9.09
2023-02-16T10:30:32.452Z,9.11
2023-02-16T10:31:32.442Z,9.14
2023-02-16T10:32:33.910Z,9.18
2023-02-16T10:33:32.169Z,9.23
2023-02-16T10:34:32.096Z,9.26
2023-02-16T10:35:32.040Z,9.30
2023-02-16T10:36:31.967Z,9.32
2023-02-16T10:37:31.902Z,9.33
2023-02-16T10:38:31.845Z,9.36
2023-02-16T10:39:31.847Z,9.41
2023-02-16T10:40:31.719Z,9.34
2023-02-16T10:41:31.684Z,9.41
2023-02-16T10:42:31.565Z,9.47
2023-02-16T10:43:31.503Z,9.40
2023-02-16T10:44:31.437Z,9.45
2023-02-16T10:45:31.366Z,9.47
2023-02-16T10:46:31.378Z,9.52
2023-02-16T10:47:31.255Z,9.54
2023-02-16T10:48:31.166Z,9.57
2023-02-16T10:49:31.107Z,9.57
2023-02-16T10:50:31.035Z,9.65
2023-02-16T10:51:30.968Z,9.77
2023-02-16T10:52:30.901Z,9.72
2023-02-16T10:53:30.836Z,9.87
2023-02-16T10:54:30.768Z,9.83
2023-02-16T10:55:30.704Z,9.78
2023-02-16T10:56:30.629Z,9.98
2023-02-16T10:57:30.563Z,9.98
2023-02-16T10:58:30.503Z,9.98
2023-02-16T10:59:30.429Z,10.01
2023-02-16T11:00:30.393Z,10.08
2023-02-16T11:01:30.345Z,10.01
2023-02-16T11:02:30.261Z,10.06
2023-02-16T11:03:30.164Z,10.12
2023-02-16T11:04:30.175Z,10.10
2023-02-16T11:05:30.032Z,10.17
2023-02-16T11:06:29.970Z,10.14
2023-02-16T11:07:29.899Z,10.24
2023-02-16T11:08:30.081Z,10.17
2023-02-16T11:09:29.761Z,10.18
2023-02-16T11:10:29.705Z,10.24
2023-02-16T11:11:29.632Z,10.31
2023-02-16T11:12:29.579Z,10.34
2023-02-16T11:13:29.577Z,10.38
2023-02-16T11:14:29.431Z,10.39
2023-02-16T11:15:29.362Z,10.42
2023-02-16T11:16:29.299Z,10.45
2023-02-16T11:17:29.231Z,10.43
2023-02-16T11:18:29.171Z,10.41
2023-02-16T11:19:29.105Z,10.55
2023-02-16T11:20:29.036Z,10.61
2023-02-16T11:21:28.965Z,10.65
2023-02-16T11:22:28.905Z,10.68
2023-02-16T11:23:28.845Z,10.83
2023-02-16T11:24:28.768Z,10.83
2023-02-16T11:25:28.703Z,10.98
2023-02-16T11:26:28.667Z,11.04
2023-02-16T11:27:28.569Z,11.01
2023-02-16T11:28:28.976Z,11.09
2023-02-16T11:29:28.442Z,11.03
2023-02-16T11:30:28.439Z,11.04
2023-02-16T11:31:28.359Z,11.04
2023-02-16T11:32:28.238Z,11.05
2023-02-16T11:33:28.174Z,11.13
2023-02-16T11:34:28.107Z,11.11
2023-02-16T11:35:28.042Z,11.11
2023-02-16T11:36:27.977Z,11.04
2023-02-16T11:37:27.911Z,11.01
2023-02-16T11:38:27.842Z,11.09
2023-02-16T11:39:27.796Z,11.11
2023-02-16T11:40:27.708Z,11.03
2023-02-16T11:41:27.635Z,11.04
2023-02-16T11:42:27.578Z,11.09
2023-02-16T11:43:27.499Z,11.18
2023-02-16T11:44:27.453Z,11.12
2023-02-16T11:45:28.436Z,11.15
2023-02-16T11:46:27.325Z,11.19
2023-02-16T11:47:27.243Z,11.22
2023-02-16T11:48:27.191Z,11.36
2023-02-16T11:49:27.108Z,11.28
2023-02-16T11:50:27.048Z,11.27
2023-02-16T11:51:26.979Z,11.22
2023-02-16T11:52:26.905Z,11.25
2023-02-16T11:53:26.853Z,11.22
2023-02-16T11:54:26.780Z,11.18
2023-02-16T11:55:26.739Z,11.19
2023-02-16T11:56:26.639Z,11.18
2023-02-16T11:57:26.588Z,11.19
2023-02-16T11:58:26.515Z,11.18
2023-02-16T11:59:26.442Z,11.16
2023-02-16T12:00:26.383Z,11.23
2023-02-16T12:01:26.327Z,11.27
2023-02-16T12:02:26.250Z,11.20
2023-02-16T12:03:26.180Z,11.22
2023-02-16T12:04:26.123Z,11.30
2023-02-16T12:05:26.255Z,11.28
2023-02-16T12:06:25.994Z,11.36
2023-02-16T12:07:25.923Z,11.40
2023-02-16T12:08:25.853Z,11.41
2023-02-16T12:09:25.792Z,11.48
2023-02-16T12:10:25.730Z,11.43
2023-02-16T12:11:25.658Z,11.52
2023-02-16T12:12:25.588Z,11.58
2023-02-16T12:13:25.520Z,11.56
2023-02-16T12:14:25.456Z,11.58
2023-02-16T12:15:25.393Z,11.56
2023-02-16T12:16:25.334Z,11.59
2023-02-16T12:17:25.262Z,11.62
2023-02-16T12:18:25.194Z,11.66
2023-02-16T12:19:25.127Z,11.64
2023-02-16T12:20:25.064Z,11.79
2023-02-16T12:21:24.994Z,11.70
2023-02-16T12:22:24.932Z,11.69
2023-02-16T12:23:24.863Z,11.76
2023-02-16T12:24:24.795Z,11.80
2023-02-16T12:25:24.742Z,11.87
2023-02-16T12:26:24.667Z,11.89
2023-02-16T12:27:24.596Z,11.96
2023-02-16T12:28:24.534Z,11.91
2023-02-16T12:29:24.466Z,11.82
2023-02-16T12:30:24.428Z,11.87
2023-02-16T12:31:24.376Z,11.85
2023-02-16T12:32:24.273Z,11.91
2023-02-16T12:33:24.203Z,11.93
2023-02-16T12:34:24.141Z,11.95
2023-02-16T12:35:24.071Z,11.84
2023-02-16T12:36:24.018Z,11.88
2023-02-16T12:37:23.941Z,11.84
2023-02-16T12:38:23.877Z,12.00
2023-02-16T12:39:23.830Z,12.03
2023-02-16T12:40:23.739Z,12.03
2023-02-16T12:41:23.677Z,11.97
2023-02-16T12:42:23.614Z,12.05
2023-02-16T12:43:23.552Z,12.15
2023-02-16T12:44:23.485Z,12.21
2023-02-16T12:45:23.417Z,12.14
2023-02-16T12:46:24.074Z,12.28
2023-02-16T12:47:23.281Z,12.21
2023-02-16T12:48:23.219Z,12.28
2023-02-16T12:49:23.154Z,12.21
2023-02-16T12:50:23.100Z,12.21
2023-02-16T12:51:23.026Z,12.26
2023-02-16T12:52:22.956Z,12.22
2023-02-16T12:53:22.891Z,12.22
2023-02-16T12:54:22.826Z,12.22
2023-02-16T12:55:22.755Z,12.15
2023-02-16T12:56:22.708Z,12.23
2023-02-16T12:57:22.628Z,12.28
2023-02-16T12:58:22.566Z,12.26
2023-02-16T12:59:22.524Z,12.35
2023-02-16T13:00:22.434Z,12.33
2023-02-16T13:01:22.443Z,12.35
2023-02-16T13:02:22.308Z,12.26
2023-02-16T13:03:22.262Z,12.21
2023-02-16T13:04:22.175Z,12.28
2023-02-16T13:05:22.122Z,12.26
2023-02-16T13:06:22.051Z,12.35
2023-02-16T13:07:21.983Z,12.35
2023-02-16T13:08:21.916Z,12.33
2023-02-16T13:09:21.852Z,12.38
2023-02-16T13:10:21.786Z,12.41
2023-02-16T13:11:21.741Z,12.50
2023-02-16T13:12:21.653Z,12.54
2023-02-16T13:13:21.592Z,12.48
2023-02-16T13:14:21.521Z,12.50
2023-02-16T13:15:21.470Z,12.53
2023-02-16T13:16:29.896Z,12.55
2023-02-16T13:17:21.339Z,12.51
2023-02-16T13:18:21.264Z,12.62
2023-02-16T13:19:21.204Z,12.63
2023-02-16T13:20:21.147Z,12.61
2023-02-16T13:21:21.081Z,12.59
2023-02-16T13:22:21.006Z,12.71
2023-02-16T13:23:20.993Z,12.65
2023-02-16T13:24:20.888Z,12.79
2023-02-16T13:25:22.085Z,12.79
2023-02-16T13:26:20.809Z,12.77
2023-02-16T13:27:20.683Z,12.93
2023-02-16T13:28:20.664Z,12.96
2023-02-16T13:29:20.592Z,12.99
2023-02-16T13:30:20.597Z,13.04
2023-02-16T13:31:20.458Z,13.01
2023-02-16T13:32:21.260Z,12.96
2023-02-16T13:33:20.326Z,12.95
2023-02-16T13:34:20.226Z,13.02
2023-02-16T13:35:20.169Z,12.88
2023-02-16T13:36:27.935Z,12.96
2023-02-16T17:16:31.255Z,10.76
2023-02-16T17:17:31.114Z,10.82
2023-02-16T20:06:08.034Z,9.88
2023-02-16T20:07:07.946Z,9.81
